createdAt,value
2019-02-21T00:00:42.293Z,7.73
2019-02-21T00:03:11.191Z,7.68
2019-02-21T00:05:39.820Z,7.65
2019-02-21T00:08:08.482Z,7.65
2019-02-21T00:10:37.164Z,7.64
2019-02-21T00:13:06.395Z,7.70
2019-02-21T00:15:35.289Z,7.73
2019-02-21T00:18:04.203Z,7.77
2019-02-21T00:20:32.840Z,7.72
2019-02-21T00:23:01.774Z,7.80
2019-02-21T00:25:30.889Z,7.74
2019-02-21T00:27:59.774Z,7.75
2019-02-21T00:30:35.194Z,7.83
2019-02-21T00:32:59.265Z,7.81
2019-02-21T00:35:28.226Z,7.83
2019-02-21T00:37:57.111Z,7.88
2019-02-21T00:40:26.071Z,7.93
2019-02-21T00:42:55.259Z,7.93
2019-02-21T00:45:24.657Z,7.96
2019-02-21T00:47:53.596Z,7.92
2019-02-21T00:50:22.235Z,7.95
2019-02-21T00:52:51.364Z,7.88
2019-02-21T00:55:20.250Z,7.79
2019-02-21T00:57:49.147Z,7.74
2019-02-21T01:00:17.970Z,7.80
2019-02-21T01:02:46.609Z,7.70
2019-02-21T01:05:15.524Z,7.75
2019-02-21T01:07:46.983Z,7.69
2019-02-21T01:10:15.007Z,7.73
2019-02-21T01:12:44.172Z,7.71
2019-02-21T01:15:12.894Z,7.69
2019-02-21T01:17:41.803Z,7.63
2019-02-21T01:20:10.768Z,7.67
2019-02-21T01:22:39.479Z,7.66
2019-02-21T01:25:08.471Z,7.65
2019-02-21T01:27:37.119Z,7.63
2019-02-21T01:30:06.064Z,7.60
2019-02-21T01:32:35.023Z,7.72
2019-02-21T01:35:03.727Z,7.74
2019-02-21T01:37:32.417Z,7.74
2019-02-21T01:40:01.388Z,7.74
2019-02-21T01:42:30.267Z,7.83
2019-02-21T01:44:58.960Z,7.75
2019-02-21T01:47:27.853Z,7.69
2019-02-21T01:49:56.508Z,7.81
2019-02-21T01:52:25.368Z,7.85
2019-02-21T01:54:54.041Z,7.81
2019-02-21T01:57:23.137Z,7.77
2019-02-21T01:59:52.015Z,7.77
2019-02-21T02:02:20.643Z,7.79
2019-02-21T02:04:49.531Z,7.72
2019-02-21T02:07:18.395Z,7.79
2019-02-21T02:09:47.442Z,7.83
2019-02-21T02:12:16.090Z,7.86
2019-02-21T02:14:45.249Z,7.85
2019-02-21T02:17:14.389Z,7.84
2019-02-21T02:19:43.276Z,7.77
2019-02-21T02:22:12.467Z,7.78
2019-02-21T02:24:41.350Z,7.78
2019-02-21T02:27:10.113Z,7.68
2019-02-21T02:29:38.988Z,7.78
2019-02-21T02:32:09.678Z,7.68
2019-02-21T02:34:38.249Z,7.74
2019-02-21T02:37:06.861Z,7.70
2019-02-21T02:39:35.566Z,7.69
2019-02-21T02:42:04.278Z,7.68
2019-02-21T02:44:33.167Z,7.71
2019-02-21T02:47:01.835Z,7.76
2019-02-21T02:49:31.093Z,7.72
2019-02-21T02:51:59.754Z,7.67
2019-02-21T02:54:28.909Z,7.72
2019-02-21T02:56:58.100Z,7.63
2019-02-21T02:59:26.979Z,7.72
2019-02-21T03:01:55.882Z,7.83
2019-02-21T03:04:24.613Z,7.76
2019-02-21T03:06:53.481Z,7.87
2019-02-21T03:09:22.357Z,7.79
2019-02-21T03:11:52.057Z,7.74
2019-02-21T03:14:21.110Z,7.72
2019-02-21T03:16:50.011Z,7.72
2019-02-21T03:19:21.974Z,7.64
2019-02-21T03:21:51.104Z,7.58
2019-02-21T03:24:19.951Z,7.59
2019-02-21T03:26:48.820Z,7.56
2019-02-21T03:29:17.711Z,7.58
2019-02-21T03:31:54.385Z,7.58
2019-02-21T03:34:17.569Z,7.61
2019-02-21T03:36:46.473Z,7.54
2019-02-21T03:39:17.844Z,7.49
2019-02-21T03:41:47.213Z,7.52
2019-02-21T03:44:15.846Z,7.37
2019-02-21T03:46:44.458Z,7.40
2019-02-21T03:49:13.869Z,7.33
2019-02-21T03:51:42.774Z,7.32
2019-02-21T03:54:11.461Z,7.31
2019-02-21T03:56:43.204Z,7.25
2019-02-21T03:59:13.642Z,7.25
2019-02-21T04:01:42.224Z,7.23
2019-02-21T04:04:13.974Z,7.22
2019-02-21T04:06:43.142Z,7.23
2019-02-21T04:09:12.189Z,7.21
2019-02-21T04:11:43.884Z,7.19
2019-02-21T04:14:12.856Z,7.14
2019-02-21T04:16:41.836Z,7.14
2019-02-21T04:19:10.450Z,7.14
2019-02-21T04:21:39.649Z,7.15
2019-02-21T04:24:08.731Z,7.17
2019-02-21T04:26:37.615Z,7.10
2019-02-21T04:29:06.584Z,7.15
2019-02-21T04:31:35.772Z,7.11
2019-02-21T04:34:04.649Z,7.08
2019-02-21T04:36:33.546Z,7.07
2019-02-21T04:39:02.194Z,7.04
2019-02-21T04:41:31.055Z,7.04
2019-02-21T04:43:59.983Z,7.16
2019-02-21T04:46:28.882Z,7.11
2019-02-21T04:48:57.766Z,7.14
2019-02-21T04:51:26.750Z,7.10
2019-02-21T04:53:55.670Z,7.04
2019-02-21T04:56:24.549Z,7.09
2019-02-21T04:58:53.720Z,7.02
2019-02-21T05:01:22.897Z,7.03
2019-02-21T05:03:51.601Z,6.97
2019-02-21T05:06:20.288Z,6.92
2019-02-21T05:08:49.240Z,6.91
2019-02-21T05:11:18.599Z,6.91
2019-02-21T05:13:47.549Z,6.94
2019-02-21T05:16:16.182Z,6.86
2019-02-21T05:18:45.126Z,6.91
2019-02-21T05:21:16.826Z,6.91
2019-02-21T05:23:46.902Z,6.90
2019-02-21T05:26:20.097Z,6.86
2019-02-21T05:28:49.190Z,6.86
2019-02-21T05:31:27.520Z,6.87
2019-02-21T05:34:07.682Z,6.86
2019-02-21T05:36:58.393Z,6.84
2019-02-21T05:39:54.333Z,6.84
2019-02-21T05:42:35.964Z,6.84
2019-02-21T05:45:29.582Z,6.89
2019-02-21T05:48:12.223Z,6.91
2019-02-21T05:50:49.410Z,6.80
2019-02-21T05:53:24.948Z,6.78
2019-02-21T05:56:01.629Z,6.85
2019-02-21T05:58:49.750Z,6.81
2019-02-21T06:01:43.743Z,6.87
2019-02-21T06:04:38.185Z,6.76
2019-02-21T06:07:16.721Z,6.82
2019-02-21T06:10:16.395Z,6.73
2019-02-21T06:12:51.479Z,6.84
2019-02-21T06:15:51.578Z,6.77
2019-02-21T06:18:43.601Z,6.79
2019-02-21T06:21:37.380Z,6.75
2019-02-21T06:24:24.070Z,6.75
2019-02-21T06:27:12.172Z,6.78
2019-02-21T06:29:45.259Z,6.75
2019-02-21T06:32:14.735Z,6.78
2019-02-21T06:34:43.596Z,6.78
2019-02-21T06:37:12.883Z,6.79
2019-02-21T06:39:42.353Z,6.88
2019-02-21T06:42:11.477Z,6.75
2019-02-21T06:44:40.362Z,6.82
2019-02-21T06:47:09.523Z,6.82
2019-02-21T06:49:38.676Z,6.78
2019-02-21T06:52:07.640Z,6.78
2019-02-21T06:54:36.607Z,6.81
2019-02-21T06:57:05.566Z,6.76
2019-02-21T06:59:42.182Z,6.81
2019-02-21T07:02:05.260Z,6.76
2019-02-21T07:04:34.207Z,6.76
2019-02-21T07:07:03.527Z,6.72
2019-02-21T07:09:32.729Z,6.73
2019-02-21T07:12:01.728Z,6.73
2019-02-21T07:14:30.423Z,6.85
2019-02-21T07:17:00.466Z,6.83
2019-02-21T07:19:29.392Z,6.83
2019-02-21T07:21:58.346Z,6.82
2019-02-21T07:24:27.228Z,6.85
2019-02-21T07:26:55.887Z,6.85
2019-02-21T07:29:24.558Z,6.85
2019-02-21T07:31:54.031Z,6.90
2019-02-21T07:34:22.849Z,6.90
2019-02-21T07:36:51.858Z,6.92
2019-02-21T07:39:21.411Z,6.99
2019-02-21T07:41:50.909Z,6.94
2019-02-21T07:44:20.044Z,6.94
2019-02-21T07:46:48.662Z,6.96
2019-02-21T07:49:17.297Z,7.02
2019-02-21T07:51:46.698Z,7.04
2019-02-21T07:54:18.510Z,7.04
2019-02-21T07:56:47.501Z,7.10
2019-02-21T07:59:16.241Z,7.10
2019-02-21T08:01:45.384Z,7.08
2019-02-21T08:04:14.860Z,7.13
2019-02-21T08:06:43.801Z,7.13
2019-02-21T08:09:12.831Z,7.14
2019-02-21T08:11:42.204Z,7.31
2019-02-21T08:14:10.863Z,7.32
2019-02-21T08:16:39.766Z,7.31
2019-02-21T08:19:08.669Z,7.31
2019-02-21T08:21:37.521Z,7.41
2019-02-21T08:24:06.316Z,7.41
2019-02-21T08:26:35.258Z,7.51
2019-02-21T08:29:06.170Z,7.47
2019-02-21T08:31:34.618Z,7.59
2019-02-21T08:34:07.437Z,7.77
2019-02-21T08:36:36.584Z,8.13
2019-02-21T08:39:07.161Z,8.30
2019-02-21T08:41:39.019Z,8.30
2019-02-21T08:44:07.666Z,8.24
2019-02-21T08:46:36.657Z,8.60
2019-02-21T08:49:07.642Z,8.60
2019-02-21T08:51:36.604Z,9.00
2019-02-21T08:54:05.777Z,9.33
2019-02-21T08:56:34.984Z,8.91
2019-02-21T08:59:03.940Z,8.97
2019-02-21T09:01:32.640Z,8.94
2019-02-21T09:04:10.468Z,8.85
2019-02-21T09:06:34.661Z,9.71
2019-02-21T09:09:04.264Z,9.71
2019-02-21T09:11:32.970Z,10.25
2019-02-21T09:14:01.882Z,10.44
2019-02-21T09:16:31.012Z,10.14
2019-02-21T09:19:00.223Z,9.93
2019-02-21T09:21:29.155Z,9.55
2019-02-21T09:23:58.143Z,9.49
2019-02-21T09:26:27.020Z,9.36
2019-02-21T09:28:58.514Z,9.88
2019-02-21T09:31:26.446Z,10.18
2019-02-21T09:33:55.176Z,10.63
2019-02-21T09:36:24.039Z,10.69
2019-02-21T09:38:53.086Z,10.92
2019-02-21T09:41:22.280Z,11.11
2019-02-21T09:43:51.458Z,10.99
2019-02-21T09:46:20.579Z,10.30
2019-02-21T09:48:49.489Z,9.81
2019-02-21T09:51:18.466Z,9.60
2019-02-21T09:53:47.325Z,9.51
2019-02-21T09:56:16.215Z,9.37
2019-02-21T09:58:45.999Z,9.17
2019-02-21T10:01:14.765Z,9.21
2019-02-21T10:03:44.371Z,9.22
2019-02-21T10:06:13.146Z,9.21
2019-02-21T10:08:41.776Z,9.27
2019-02-21T10:11:11.539Z,9.27
2019-02-21T10:13:40.275Z,9.23
2019-02-21T10:16:09.155Z,9.19
2019-02-21T10:18:38.717Z,9.21
2019-02-21T10:21:07.343Z,9.21
2019-02-21T10:23:35.960Z,9.30
2019-02-21T10:26:04.671Z,9.33
2019-02-21T10:28:33.289Z,9.39
2019-02-21T10:31:02.373Z,9.41
2019-02-21T10:33:31.513Z,9.25
2019-02-21T10:36:00.595Z,9.30
2019-02-21T10:38:29.353Z,9.37
2019-02-21T10:40:58.276Z,9.41
2019-02-21T10:43:26.859Z,9.14
2019-02-21T10:45:55.736Z,9.17
2019-02-21T10:48:24.690Z,9.22
2019-02-21T10:50:53.389Z,9.20
2019-02-21T10:53:22.034Z,9.19
2019-02-21T10:55:50.828Z,9.13
2019-02-21T10:58:19.715Z,9.20
2019-02-21T11:00:48.418Z,9.21
2019-02-21T11:03:17.543Z,9.21
2019-02-21T11:05:46.544Z,9.22
2019-02-21T11:08:15.501Z,9.22
2019-02-21T11:10:44.491Z,9.26
2019-02-21T11:13:13.378Z,9.20
2019-02-21T11:15:42.485Z,9.20
2019-02-21T11:18:11.093Z,9.25
2019-02-21T11:20:40.017Z,9.26
2019-02-21T11:23:08.862Z,9.23
2019-02-21T11:25:37.560Z,9.30
2019-02-21T11:28:06.743Z,9.27
2019-02-21T11:30:35.462Z,9.29
2019-02-21T11:33:04.724Z,9.31
2019-02-21T11:35:33.604Z,9.25
2019-02-21T11:38:02.316Z,9.30
2019-02-21T11:40:31.577Z,9.21
2019-02-21T11:43:02.691Z,9.15
2019-02-21T11:45:31.976Z,9.19
2019-02-21T11:48:01.078Z,9.16
2019-02-21T11:50:30.353Z,9.18
2019-02-21T11:52:59.556Z,9.18
2019-02-21T11:55:28.586Z,9.25
2019-02-21T11:57:57.498Z,9.19
2019-02-21T12:00:26.659Z,9.18
2019-02-21T12:02:55.513Z,9.18
2019-02-21T12:05:32.189Z,9.10
2019-02-21T12:07:54.919Z,8.75
2019-02-21T12:10:23.743Z,8.75
2019-02-21T12:12:53.196Z,8.75
2019-02-21T12:15:22.125Z,8.75
2019-02-21T12:17:50.868Z,8.77
2019-02-21T12:20:19.843Z,8.71
2019-02-21T12:22:48.546Z,8.72
2019-02-21T12:25:17.494Z,8.70
2019-02-21T12:27:46.160Z,8.73
2019-02-21T12:30:16.600Z,8.73
2019-02-21T12:32:45.507Z,8.57
2019-02-21T12:35:15.114Z,8.68
2019-02-21T12:37:43.897Z,8.82
2019-02-21T12:40:14.842Z,8.78
2019-02-21T12:42:43.795Z,8.70
2019-02-21T12:45:13.981Z,8.70
2019-02-21T12:47:50.841Z,8.77
2019-02-21T12:50:13.655Z,8.65
2019-02-21T12:52:42.632Z,8.67
2019-02-21T12:55:11.537Z,8.63
2019-02-21T12:57:40.723Z,8.57
2019-02-21T13:00:12.172Z,8.50
2019-02-21T13:02:41.041Z,8.57
2019-02-21T13:05:09.934Z,8.61
2019-02-21T13:07:38.928Z,8.56
2019-02-21T13:10:10.022Z,8.68
2019-02-21T13:12:39.414Z,8.69
2019-02-21T13:15:09.247Z,8.61
2019-02-21T13:17:37.858Z,8.61
2019-02-21T13:20:07.376Z,8.64
2019-02-21T13:22:36.330Z,8.60
2019-02-21T13:25:05.897Z,8.54
2019-02-21T13:27:35.262Z,8.49
2019-02-21T13:30:04.561Z,8.50
2019-02-21T13:32:33.704Z,8.50
2019-02-21T13:35:03.105Z,8.45
2019-02-21T13:37:31.957Z,8.40
2019-02-21T13:40:00.976Z,8.44
2019-02-21T13:42:29.922Z,8.40
2019-02-21T13:44:58.523Z,8.40
2019-02-21T13:47:27.396Z,8.39
2019-02-21T13:49:56.041Z,8.34
2019-02-21T13:52:24.756Z,8.30
2019-02-21T13:54:53.578Z,8.35
2019-02-21T13:57:22.725Z,8.23
2019-02-21T13:59:51.774Z,8.23
2019-02-21T14:02:20.481Z,8.10
2019-02-21T14:04:49.862Z,8.08
2019-02-21T14:07:18.761Z,8.03
2019-02-21T14:09:47.646Z,8.15
2019-02-21T14:12:16.629Z,8.08
2019-02-21T14:14:45.747Z,8.05
2019-02-21T14:17:15.208Z,8.11
2019-02-21T14:19:44.345Z,8.19
2019-02-21T14:22:13.490Z,8.16
2019-02-21T14:24:42.379Z,8.17
2019-02-21T14:27:11.319Z,8.06
2019-02-21T14:29:40.036Z,8.10
2019-02-21T14:32:08.998Z,8.05
2019-02-21T14:34:37.723Z,8.02
2019-02-21T14:37:06.566Z,7.98
2019-02-21T14:39:35.524Z,8.08
2019-02-21T14:42:04.660Z,8.08
2019-02-21T14:44:34.039Z,8.06
2019-02-21T14:47:02.971Z,8.19
2019-02-21T14:49:32.088Z,8.24
2019-02-21T14:52:01.987Z,8.31
2019-02-21T14:54:31.024Z,8.33
2019-02-21T14:56:59.888Z,8.35
2019-02-21T14:59:28.755Z,8.50
2019-02-21T15:01:57.620Z,8.39
2019-02-21T15:04:26.776Z,8.38
2019-02-21T15:06:55.916Z,8.41
2019-02-21T15:09:24.860Z,8.40
2019-02-21T15:11:53.771Z,8.42
2019-02-21T15:14:23.225Z,8.39
2019-02-21T15:16:51.893Z,8.41
2019-02-21T15:19:20.521Z,8.26
2019-02-21T15:21:49.161Z,8.28
2019-02-21T15:24:17.831Z,8.24
2019-02-21T15:26:46.963Z,8.34
2019-02-21T15:29:15.810Z,8.39
2019-02-21T15:31:44.688Z,8.32
2019-02-21T15:34:13.600Z,8.38
2019-02-21T15:36:42.780Z,8.33
2019-02-21T15:39:11.526Z,8.29
2019-02-21T15:41:40.495Z,8.33
2019-02-21T15:44:09.608Z,8.29
2019-02-21T15:46:38.502Z,8.28
2019-02-21T15:49:07.201Z,8.29
2019-02-21T15:51:40.734Z,8.30
2019-02-21T15:54:12.337Z,8.31
2019-02-21T15:56:40.788Z,8.31
2019-02-21T15:59:09.522Z,8.23
2019-02-21T16:01:47.010Z,8.32
2019-02-21T16:04:08.815Z,8.32
2019-02-21T16:06:39.308Z,8.33
2019-02-21T16:09:16.300Z,8.38
2019-02-21T16:11:40.002Z,8.35
2019-02-21T16:14:09.794Z,8.32
2019-02-21T16:16:38.427Z,8.29
2019-02-21T16:19:07.236Z,8.31
2019-02-21T16:21:36.385Z,8.39
2019-02-21T16:24:05.635Z,8.34
2019-02-21T16:26:36.195Z,8.15
2019-02-21T16:29:04.849Z,8.31
2019-02-21T16:31:33.789Z,8.30
2019-02-21T16:34:02.708Z,8.35
2019-02-21T16:36:31.621Z,8.38
2019-02-21T16:39:01.318Z,8.32
2019-02-21T16:41:36.379Z,8.30
2019-02-21T16:44:01.216Z,8.32
2019-02-21T16:46:29.840Z,8.15
2019-02-21T16:48:58.746Z,8.26
2019-02-21T16:51:27.449Z,8.30
2019-02-21T16:53:56.574Z,8.29
2019-02-21T16:56:26.646Z,8.33
2019-02-21T16:58:55.432Z,8.31
2019-02-21T17:01:24.328Z,8.34
2019-02-21T17:03:52.964Z,8.33
2019-02-21T17:06:21.896Z,8.36
2019-02-21T17:08:50.539Z,8.36
2019-02-21T17:11:19.533Z,8.30
2019-02-21T17:13:52.797Z,8.20
2019-02-21T17:16:21.072Z,8.20
2019-02-21T17:18:50.043Z,8.18
2019-02-21T17:21:20.996Z,8.12
2019-02-21T17:23:49.622Z,8.14
2019-02-21T17:26:18.262Z,8.12
2019-02-21T17:28:49.920Z,8.08
2019-02-21T17:31:18.649Z,8.10
2019-02-21T17:33:47.525Z,8.16
2019-02-21T17:36:16.269Z,8.12
2019-02-21T17:38:45.334Z,8.16
2019-02-21T17:41:14.270Z,8.15
2019-02-21T17:43:43.443Z,8.15
2019-02-21T17:46:12.376Z,8.10
2019-02-21T17:48:41.363Z,8.06
2019-02-21T17:51:10.310Z,8.15
2019-02-21T17:53:39.284Z,8.16
2019-02-21T17:56:08.280Z,8.13
2019-02-21T17:58:37.307Z,8.12
2019-02-21T18:01:08.812Z,8.13
2019-02-21T18:03:37.657Z,8.17
2019-02-21T18:06:06.415Z,8.05
2019-02-21T18:08:35.342Z,8.13
2019-02-21T18:11:04.092Z,8.08
2019-02-21T18:13:32.857Z,8.11
2019-02-21T18:16:01.512Z,8.11
2019-02-21T18:18:30.439Z,8.12
2019-02-21T18:20:59.189Z,8.13
2019-02-21T18:23:27.863Z,8.11
2019-02-21T18:26:04.448Z,8.17
2019-02-21T18:28:33.523Z,8.15
2019-02-21T18:31:02.287Z,8.08
2019-02-21T18:33:31.203Z,7.98
2019-02-21T18:35:59.877Z,8.05
2019-02-21T18:38:28.754Z,8.07
2019-02-21T18:40:57.493Z,8.07
2019-02-21T18:43:26.980Z,8.05
2019-02-21T18:45:57.543Z,8.13
2019-02-21T18:48:26.517Z,8.01
2019-02-21T18:50:55.280Z,7.95
2019-02-21T18:53:23.964Z,8.00
2019-02-21T18:55:52.879Z,8.01
2019-02-21T18:58:22.593Z,8.03
2019-02-21T19:00:51.509Z,8.13
2019-02-21T19:03:24.831Z,8.06
2019-02-21T19:05:54.026Z,8.03
2019-02-21T19:08:22.691Z,8.13
2019-02-21T19:10:52.069Z,8.13
2019-02-21T19:13:20.716Z,8.15
2019-02-21T19:15:49.926Z,8.09
2019-02-21T19:18:18.856Z,8.13
2019-02-21T19:20:49.870Z,8.15
2019-02-21T19:23:18.897Z,8.19
2019-02-21T19:25:49.166Z,8.18
2019-02-21T19:28:18.845Z,8.16
2019-02-21T19:30:54.436Z,8.13
2019-02-21T19:33:23.420Z,8.12
2019-02-21T19:35:52.908Z,8.11
2019-02-21T19:38:22.627Z,8.13
2019-02-21T19:40:51.521Z,8.13
2019-02-21T19:43:20.492Z,8.04
2019-02-21T19:45:50.533Z,8.05
2019-02-21T19:48:19.267Z,8.02
2019-02-21T19:50:47.986Z,8.11
2019-02-21T19:53:17.014Z,8.06
2019-02-21T19:55:46.266Z,8.01
2019-02-21T19:58:15.788Z,8.01
2019-02-21T20:00:44.832Z,7.96
2019-02-21T20:03:13.906Z,7.87
2019-02-21T20:05:42.930Z,7.90
2019-02-21T20:08:20.986Z,7.82
2019-02-21T20:10:43.249Z,7.85
2019-02-21T20:13:13.411Z,7.76
2019-02-21T20:15:42.182Z,7.71
2019-02-21T20:18:10.887Z,7.58
2019-02-21T20:20:40.195Z,7.52
2019-02-21T20:23:11.032Z,7.37
2019-02-21T20:25:39.978Z,7.34
2019-02-21T20:28:08.958Z,7.37
2019-02-21T20:30:37.969Z,7.40
2019-02-21T20:33:06.651Z,7.29
2019-02-21T20:35:35.591Z,7.18
2019-02-21T20:38:04.735Z,7.21
2019-02-21T20:40:33.620Z,7.20
2019-02-21T20:43:02.437Z,7.15
2019-02-21T20:45:31.673Z,7.15
2019-02-21T20:48:01.115Z,7.14
2019-02-21T20:50:29.743Z,7.12
2019-02-21T20:52:58.699Z,7.09
2019-02-21T20:55:27.345Z,7.07
2019-02-21T20:57:56.502Z,7.12
2019-02-21T21:00:25.792Z,7.09
2019-02-21T21:02:54.446Z,7.12
2019-02-21T21:05:23.447Z,7.03
2019-02-21T21:07:52.648Z,7.03
2019-02-21T21:10:21.626Z,7.00
2019-02-21T21:12:50.785Z,6.96
2019-02-21T21:15:19.525Z,6.96
2019-02-21T21:17:48.459Z,6.96
2019-02-21T21:20:17.665Z,6.93
2019-02-21T21:22:46.562Z,6.93
2019-02-21T21:25:15.422Z,6.93
2019-02-21T21:27:44.856Z,6.93
2019-02-21T21:30:14.540Z,6.95
2019-02-21T21:32:43.237Z,6.98
2019-02-21T21:35:12.180Z,7.00
2019-02-21T21:37:41.183Z,7.02
2019-02-21T21:40:11.801Z,7.00
2019-02-21T21:42:41.378Z,7.02
2019-02-21T21:45:12.582Z,7.01
2019-02-21T21:47:41.697Z,7.00
2019-02-21T21:50:11.357Z,6.92
2019-02-21T21:52:40.278Z,6.92
2019-02-21T21:55:08.976Z,6.90
2019-02-21T21:57:37.918Z,6.87
2019-02-21T22:00:09.127Z,6.92
2019-02-21T22:02:37.765Z,6.95
2019-02-21T22:05:07.039Z,6.83
2019-02-21T22:07:35.687Z,6.83
2019-02-21T22:10:05.161Z,6.82
2019-02-21T22:12:34.315Z,6.85
2019-02-21T22:15:03.254Z,6.85
2019-02-21T22:17:31.885Z,6.84
2019-02-21T22:20:00.502Z,6.82
2019-02-21T22:22:29.442Z,6.85
2019-02-21T22:24:58.313Z,6.86
2019-02-21T22:27:27.228Z,6.95
2019-02-21T22:29:56.397Z,6.89
2019-02-21T22:32:25.279Z,6.95
2019-02-21T22:34:53.930Z,6.92
2019-02-21T22:37:22.579Z,7.02
2019-02-21T22:39:52.186Z,7.08
2019-02-21T22:42:20.815Z,6.95
2019-02-21T22:44:49.734Z,6.95
2019-02-21T22:47:18.390Z,6.89
2019-02-21T22:49:47.550Z,6.88
2019-02-21T22:52:17.098Z,6.82
2019-02-21T22:54:46.516Z,6.76
2019-02-21T22:57:15.654Z,6.78
2019-02-21T22:59:44.814Z,6.74
2019-02-21T23:02:13.967Z,6.74
2019-02-21T23:04:48.374Z,6.74
2019-02-21T23:07:53.430Z,6.86
2019-02-21T23:10:22.404Z,6.83
2019-02-21T23:12:51.286Z,6.81
2019-02-21T23:15:20.509Z,6.72
2019-02-21T23:17:49.714Z,6.68
2019-02-21T23:20:18.667Z,6.66
2019-02-21T23:22:48.062Z,6.66
2019-02-21T23:25:16.974Z,6.60
2019-02-21T23:27:45.868Z,6.61
2019-02-21T23:30:14.919Z,6.61
2019-02-21T23:32:44.044Z,6.64
2019-02-21T23:35:18.103Z,6.63
2019-02-21T23:37:47.073Z,6.63
2019-02-21T23:40:16.262Z,6.61
2019-02-21T23:42:44.923Z,6.44
2019-02-21T23:45:13.890Z,6.44
2019-02-21T23:47:49.819Z,6.42
2019-02-21T23:50:12.988Z,6.39
2019-02-21T23:52:42.246Z,6.35
2019-02-21T23:55:10.919Z,6.35
2019-02-21T23:57:39.893Z,6.25
